Time;durP1;ratioP1;P1;durP2;ratioP2;P2;SDS_P1;SDS_P2;PMS_P1;PMS_P2;Temp;Humidity;BMP_temperature;BMP_pressure;BME280_temperature;BME280_humidity;BME280_pressure;Samples;Min_cycle;Max_cycle;Signal;HPM_P1;HPM_P2
2022/08/19 00:02:01;;;;;;;1.38;1.27;;;;;;;26.35;47.01;101316.75;5007927;28;20033;-63
2022/08/19 00:04:32;;;;;;;1.88;1.35;;;;;;;26.33;46.95;101314.22;5025883;28;20040;-62
2022/08/19 00:06:58;;;;;;;1.30;1.15;;;;;;;26.15;46.81;101281.31;5007968;28;20165;-62
2022/08/19 00:09:25;;;;;;;1.38;1.25;;;;;;;26.32;46.96;101304.38;5008314;28;20094;-63
2022/08/19 00:11:51;;;;;;;1.50;1.20;;;;;;;26.32;46.93;101309.00;5024924;28;20064;-61
2022/08/19 00:14:17;;;;;;;1.75;1.30;;;;;;;26.31;47.02;101310.88;5008017;28;20116;-62
2022/08/19 00:16:44;;;;;;;1.73;1.48;;;;;;;26.31;46.86;101313.59;5008107;28;20164;-63
2022/08/19 00:19:09;;;;;;;1.83;1.40;;;;;;;26.30;46.67;101314.66;5025378;28;20036;-63
2022/08/19 00:21:39;;;;;;;1.58;1.38;;;;;;;26.30;46.56;101309.22;5007948;28;20034;-63
2022/08/19 00:24:05;;;;;;;1.48;1.38;;;;;;;26.10;46.66;101284.66;5008441;28;20030;-62
2022/08/19 00:26:31;;;;;;;2.60;1.40;;;;;;;26.10;46.43;101281.09;5008224;28;20018;-63
2022/08/19 00:28:56;;;;;;;1.17;1.08;;;;;;;26.27;46.71;101315.06;4991168;28;20025;-62
2022/08/19 00:31:22;;;;;;;1.45;1.33;;;;;;;26.28;46.65;101314.00;5025553;28;20029;-63
2022/08/19 00:33:49;;;;;;;2.95;1.50;;;;;;;26.27;46.81;101312.34;5025054;28;20048;-63
2022/08/19 00:36:14;;;;;;;2.25;1.30;;;;;;;26.26;46.52;101310.69;5008344;28;20022;-62
2022/08/19 00:38:43;;;;;;;2.40;1.40;;;;;;;26.25;46.49;101299.97;5007756;28;20064;-61
2022/08/19 00:41:10;;;;;;;2.33;1.40;;;;;;;26.25;46.72;101299.97;5008148;28;20387;-62
2022/08/19 00:43:35;;;;;;;2.47;1.45;;;;;;;26.24;46.41;101293.69;5006883;28;20042;-63
2022/08/19 00:46:04;;;;;;;1.63;1.52;;;;;;;26.22;46.54;101289.50;5025442;28;20022;-63
2022/08/19 00:48:31;;;;;;;1.70;1.60;;;;;;;26.22;46.27;101292.22;5018513;28;20091;-62
2022/08/19 00:50:56;;;;;;;2.00;1.60;;;;;;;26.22;46.41;101306.69;5027450;28;20033;-63
2022/08/19 00:53:25;;;;;;;2.03;1.40;;;;;;;26.06;46.69;101291.56;5027037;28;20068;-62
2022/08/19 00:55:52;;;;;;;1.65;1.33;;;;;;;26.22;46.41;101305.84;5027680;28;20021;-61
2022/08/19 00:58:21;;;;;;;1.85;1.60;;;;;;;26.18;46.38;101311.72;5026841;28;20100;-63
2022/08/19 01:00:47;;;;;;;2.25;1.75;;;;;;;26.17;46.16;101304.59;5027501;28;20071;-62
2022/08/19 01:03:16;;;;;;;1.95;1.40;;;;;;;26.21;46.20;101312.31;5014134;28;20022;-62
2022/08/19 01:05:43;;;;;;;1.95;1.40;;;;;;;26.20;46.44;101308.75;5043097;28;20040;-63
2022/08/19 01:08:09;;;;;;;2.90;1.50;;;;;;;26.19;46.30;101296.19;5007720;28;20025;-63
2022/08/19 01:10:41;;;;;;;2.17;1.90;;;;;;;26.18;46.40;101295.34;5013155;28;20455;-63
2022/08/19 01:13:07;;;;;;;2.20;1.30;;;;;;;26.18;46.37;101305.41;5026030;28;20027;-63
2022/08/19 01:15:43;;;;;;;1.70;1.33;;;;;;;26.16;46.07;101311.06;5027381;28;20085;-63
2022/08/19 01:18:11;;;;;;;1.65;1.13;;;;;;;26.16;46.28;101302.03;5027098;28;20107;-63
2022/08/19 01:20:37;;;;;;;1.52;1.05;;;;;;;26.16;46.09;101291.16;5009147;28;20033;-63
2022/08/19 01:23:03;;;;;;;2.53;1.50;;;;;;;26.15;46.28;101301.22;5006968;28;20030;-63
2022/08/19 01:25:33;;;;;;;1.65;1.20;;;;;;;26.14;46.03;101299.53;5025161;28;20050;-64
2022/08/19 01:27:59;;;;;;;1.50;1.33;;;;;;;26.14;46.07;101306.88;4990703;28;20101;-63
2022/08/19 01:30:30;;;;;;;2.15;1.50;;;;;;;26.13;45.93;101314.22;4993022;28;20029;-63
2022/08/19 01:32:57;;;;;;;1.45;1.35;;;;;;;26.12;46.24;101306.22;5010707;28;20014;-63
2022/08/19 01:35:24;;;;;;;2.20;1.60;;;;;;;26.12;46.06;101311.69;5010948;28;20485;-63
2022/08/19 01:37:56;;;;;;;2.20;1.65;;;;;;;26.12;45.95;101318.00;5047393;28;20031;-63
2022/08/19 01:40:25;;;;;;;3.25;1.42;;;;;;;26.11;46.07;101324.47;5030824;28;20085;-63
2022/08/19 01:42:52;;;;;;;1.73;1.50;;;;;;;26.11;45.90;101315.47;5029491;28;20035;-64
2022/08/19 01:45:19;;;;;;;4.47;1.95;;;;;;;25.89;46.00;101272.03;5048511;28;20044;-62
2022/08/19 01:47:44;;;;;;;2.08;1.60;;;;;;;26.09;46.12;101312.13;5030262;28;20517;-62
2022/08/19 01:50:11;;;;;;;2.88;1.30;;;;;;;26.06;45.98;101313.34;5030425;28;20025;-63
2022/08/19 01:52:37;;;;;;;1.40;1.27;;;;;;;26.07;45.79;101301.41;5030055;28;20029;-63
2022/08/19 01:55:04;;;;;;;1.63;1.25;;;;;;;26.07;45.77;101306.03;5030473;28;20128;-63
2022/08/19 01:57:29;;;;;;;2.28;1.33;;;;;;;26.05;45.91;101311.69;5013744;28;20120;-63
2022/08/19 01:59:56;;;;;;;1.58;1.48;;;;;;;26.06;45.95;101310.63;5030631;28;20076;-63
2022/08/19 02:02:22;;;;;;;1.52;1.30;;;;;;;26.06;45.73;101326.16;5047723;28;20029;-64
2022/08/19 02:04:47;;;;;;;1.88;1.38;;;;;;;26.04;45.82;101315.47;5030184;28;20033;-63
2022/08/19 02:07:13;;;;;;;1.20;1.10;;;;;;;26.04;45.74;101310.03;5029738;28;20029;-63
2022/08/19 02:09:38;;;;;;;1.33;1.13;;;;;;;25.83;45.61;101278.31;5029926;28;20025;-63
2022/08/19 02:12:07;;;;;;;2.05;1.20;;;;;;;26.02;45.80;101306.66;5009543;28;20057;-63
2022/08/19 02:14:34;;;;;;;4.03;1.55;;;;;;;26.01;45.82;101302.25;4994094;28;20081;-63
2022/08/19 02:16:59;;;;;;;1.63;1.52;;;;;;;26.00;45.63;101297.84;5027694;28;20044;-63
2022/08/19 02:19:24;;;;;;;1.73;1.30;;;;;;;25.82;45.72;101279.34;5027825;28;20025;-63
2022/08/19 02:21:49;;;;;;;2.38;1.27;;;;;;;26.01;45.39;101317.75;5009770;28;20053;-63
2022/08/19 02:24:15;;;;;;;1.83;1.20;;;;;;;26.00;45.64;101316.91;5009936;28;20030;-63
2022/08/19 02:26:40;;;;;;;1.52;1.00;;;;;;;25.97;45.62;101305.59;5027612;28;20052;-63
2022/08/19 02:29:05;;;;;;;1.83;1.30;;;;;;;25.99;45.64;101314.38;5027131;28;20408;-63
2022/08/19 02:31:30;;;;;;;3.05;1.50;;;;;;;25.98;45.54;101316.28;5027460;28;20026;-64
2022/08/19 02:33:57;;;;;;;2.45;1.13;;;;;;;25.82;45.39;101281.22;5027327;28;20022;-63
2022/08/19 02:36:23;;;;;;;1.20;1.10;;;;;;;25.75;45.57;101269.47;5010099;28;20093;-63
2022/08/19 02:38:48;;;;;;;1.17;1.08;;;;;;;25.97;45.48;101314.59;5009607;28;20044;-63
2022/08/19 02:41:19;;;;;;;1.75;1.27;;;;;;;25.96;45.54;101315.66;5027410;28;20025;-63
2022/08/19 02:43:45;;;;;;;1.80;1.40;;;;;;;25.77;45.54;101295.47;5008746;28;20029;-63
2022/08/19 02:46:14;;;;;;;1.67;1.00;;;;;;;25.95;45.48;101313.94;5027764;28;20034;-63
2022/08/19 02:48:39;;;;;;;1.92;1.30;;;;;;;25.95;45.49;101311.22;5027395;28;20026;-62
2022/08/19 02:51:05;;;;;;;1.50;1.08;;;;;;;25.75;45.65;101273.03;5027337;28;20030;-64
2022/08/19 02:53:30;;;;;;;1.27;1.15;;;;;;;25.94;45.56;101306.84;5026898;28;20046;-62
2022/08/19 02:55:56;;;;;;;1.50;1.23;;;;;;;25.89;45.50;101293.00;5009266;28;20049;-63
2022/08/19 02:58:22;;;;;;;1.25;1.15;;;;;;;25.91;45.56;101302.66;5009287;28;20022;-63
2022/08/19 03:00:52;;;;;;;1.45;1.33;;;;;;;25.91;45.58;101315.41;5009400;28;20022;-62
2022/08/19 03:03:18;;;;;;;1.52;1.30;;;;;;;25.91;45.37;101312.69;5008873;28;20029;-63
2022/08/19 03:05:44;;;;;;;2.38;1.30;;;;;;;25.89;45.38;101321.06;5009397;28;20030;-63
2022/08/19 03:08:12;;;;;;;1.40;1.25;;;;;;;25.89;45.30;101325.69;5026782;28;20053;-62
2022/08/19 03:10:55;;;;;;;1.20;1.10;;;;;;;25.87;45.40;101319.59;5035044;28;20056;-63
2022/08/19 03:13:20;;;;;;;1.52;1.20;;;;;;;25.88;45.35;101321.28;5028144;28;20055;-63
2022/08/19 03:15:47;;;;;;;1.02;0.98;;;;;;;25.68;45.23;101283.06;5028701;28;20097;-63
2022/08/19 03:18:13;;;;;;;1.10;1.00;;;;;;;25.86;45.25;101313.31;5046395;28;20063;-63
2022/08/19 03:20:48;;;;;;;2.33;1.25;;;;;;;25.86;45.09;101316.03;5028708;28;20060;-63
2022/08/19 03:23:14;;;;;;;1.30;1.02;;;;;;;25.83;45.33;101316.47;5028509;28;20026;-63
2022/08/19 03:25:42;;;;;;;1.30;1.20;;;;;;;25.83;45.18;101321.91;5028877;28;20045;-62
2022/08/19 03:28:08;;;;;;;1.73;1.13;;;;;;;25.83;45.21;101319.19;5027754;28;20033;-62
2022/08/19 03:30:33;;;;;;;1.42;1.08;;;;;;;25.82;45.06;101312.03;5046280;28;20032;-63
2022/08/19 03:32:59;;;;;;;0.77;0.75;;;;;;;25.81;45.07;101314.97;5027762;28;20024;-64
2022/08/19 03:35:24;;;;;;;2.92;1.10;;;;;;;25.82;45.07;101313.91;5046369;28;20041;-63
2022/08/19 03:37:49;;;;;;;1.05;0.95;;;;;;;25.80;45.36;101314.13;5045947;28;20032;-63
2022/08/19 03:40:14;;;;;;;1.52;1.15;;;;;;;25.61;45.32;101285.75;5046355;28;20489;-63
2022/08/19 03:42:42;;;;;;;1.73;1.02;;;;;;;25.80;45.20;101308.69;5027109;28;20029;-63
2022/08/19 03:45:07;;;;;;;1.48;1.10;;;;;;;25.80;45.26;101313.31;5046050;28;20447;-63
2022/08/19 03:47:33;;;;;;;1.70;1.00;;;;;;;25.55;45.25;101275.69;5045689;28;20040;-64
2022/08/19 03:49:58;;;;;;;1.05;0.90;;;;;;;25.78;45.11;101321.66;5046133;28;20089;-63
2022/08/19 03:52:23;;;;;;;1.63;1.17;;;;;;;25.78;45.03;101324.38;5045008;28;20029;-63
2022/08/19 03:54:49;;;;;;;1.08;0.90;;;;;;;25.78;45.08;101320.81;5011465;28;20360;-63
2022/08/19 03:57:14;;;;;;;1.45;1.30;;;;;;;25.77;45.09;101317.25;5027527;28;20023;-63
2022/08/19 03:59:39;;;;;;;1.15;1.05;;;;;;;25.77;45.02;101316.41;5045714;28;20033;-63
2022/08/19 04:02:10;;;;;;;1.23;1.02;;;;;;;25.75;44.99;101318.50;5045405;28;20063;-63
2022/08/19 04:04:37;;;;;;;1.75;1.35;;;;;;;25.75;45.16;101316.59;5011263;28;20052;-63
2022/08/19 04:07:03;;;;;;;1.33;1.23;;;;;;;25.76;45.10;101325.63;5011728;28;20052;-63
2022/08/19 04:09:28;;;;;;;1.40;1.10;;;;;;;25.74;44.94;101322.25;5027934;28;20037;-63
2022/08/19 04:11:55;;;;;;;1.08;0.85;;;;;;;25.73;45.18;101318.69;5026584;28;20025;-62
2022/08/19 04:14:26;;;;;;;1.10;1.00;;;;;;;25.74;45.04;101316.78;5007237;28;20026;-63
2022/08/19 04:16:52;;;;;;;1.23;0.88;;;;;;;25.72;45.01;101311.56;5008068;28;20052;-63
2022/08/19 04:19:18;;;;;;;2.60;1.05;;;;;;;25.71;44.94;101306.31;5025646;28;20041;-63
2022/08/19 04:21:46;;;;;;;1.17;0.90;;;;;;;25.72;44.93;101308.00;5007998;28;20049;-63
2022/08/19 04:24:12;;;;;;;1.38;1.00;;;;;;;25.70;44.85;101308.22;5007710;28;20021;-63
2022/08/19 04:26:38;;;;;;;0.80;0.70;;;;;;;25.70;44.99;101305.50;5008060;28;20029;-64
2022/08/19 04:29:07;;;;;;;1.48;1.10;;;;;;;25.69;44.75;101304.63;5007833;28;20044;-62
2022/08/19 04:31:35;;;;;;;1.38;0.90;;;;;;;25.67;45.01;101298.56;5007709;28;20030;-62
2022/08/19 04:34:03;;;;;;;2.77;0.93;;;;;;;25.68;44.90;101297.50;5007931;28;20014;-63
2022/08/19 04:36:32;;;;;;;1.13;1.00;;;;;;;25.68;44.88;101299.41;4991689;28;20033;-63
2022/08/19 04:38:59;;;;;;;1.13;1.02;;;;;;;25.67;45.00;101297.72;5025054;28;20019;-63
2022/08/19 04:44:14;;;;;;;1.13;0.98;;;;;;;25.65;44.94;101291.63;4950844;29;20174;-62
2022/08/19 04:46:39;;;;;;;2.13;0.93;;;;;;;25.64;44.98;101285.34;4948577;29;20039;-63
2022/08/19 04:49:05;;;;;;;1.20;1.00;;;;;;;25.65;44.98;101278.00;4964135;29;20042;-64
2022/08/19 04:51:34;;;;;;;1.20;0.85;;;;;;;25.64;44.70;101282.63;4964645;29;20465;-63
2022/08/19 04:54:01;;;;;;;1.50;0.95;;;;;;;25.44;44.62;101249.03;4932050;29;20047;-63
2022/08/19 04:56:26;;;;;;;0.70;0.70;;;;;;;25.47;44.58;101264.97;4948573;29;20059;-63
2022/08/19 04:58:53;;;;;;;1.17;1.08;;;;;;;25.60;44.78;101278.63;4948074;29;20040;-63
2022/08/19 05:01:23;;;;;;;1.25;0.80;;;;;;;25.63;44.68;101285.56;4964386;29;20042;-63
2022/08/19 05:03:50;;;;;;;0.60;0.60;;;;;;;25.60;44.84;101277.78;4963781;28;20063;-63
2022/08/19 05:06:17;;;;;;;1.00;0.75;;;;;;;25.40;44.73;101256.78;4951353;28;20082;-63
2022/08/19 05:08:43;;;;;;;1.10;0.85;;;;;;;25.59;44.79;101292.47;4968088;29;20050;-63
2022/08/19 05:11:11;;;;;;;0.80;0.80;;;;;;;25.60;44.78;101288.69;4964244;28;20039;-63
2022/08/19 05:13:37;;;;;;;0.95;0.80;;;;;;;25.40;44.72;101262.22;4986433;28;20022;-63
2022/08/19 05:16:02;;;;;;;2.15;0.95;;;;;;;25.60;44.48;101299.56;4971483;28;20039;-63
2022/08/19 05:23:59;;;;;;;1.20;0.80;;;;;;;25.38;44.69;101268.91;5013382;28;20076;-63
2022/08/19 05:26:28;;;;;;;2.05;1.15;;;;;;;25.58;44.79;101297.06;5028839;28;20034;-64
2022/08/19 05:28:54;;;;;;;0.80;0.60;;;;;;;25.57;44.58;101319.91;5011041;28;20045;-63
2022/08/19 05:31:20;;;;;;;0.80;0.80;;;;;;;25.58;44.82;101304.41;5028730;28;20026;-64
2022/08/19 05:33:45;;;;;;;0.90;0.80;;;;;;;25.55;44.72;101305.63;5028019;28;20025;-63
2022/08/19 05:36:11;;;;;;;1.40;0.75;;;;;;;25.56;44.73;101306.47;5011066;28;20114;-63
2022/08/19 05:38:37;;;;;;;1.00;0.90;;;;;;;25.55;44.71;101299.34;5028132;28;20025;-63
2022/08/19 05:41:30;;;;;;;0.98;0.93;;;;;;;25.54;44.53;101290.34;5010862;28;20036;-63
2022/08/19 05:44:01;;;;;;;1.15;0.85;;;;;;;25.55;44.77;101294.75;5010970;28;20061;-63
2022/08/19 05:46:27;;;;;;;1.08;0.77;;;;;;;25.34;44.69;101270.34;5010908;28;20526;-63
2022/08/19 05:48:53;;;;;;;0.90;0.77;;;;;;;25.54;44.75;101305.84;5010177;28;20034;-63
2022/08/19 05:51:18;;;;;;;0.93;0.80;;;;;;;25.54;44.74;101294.97;5028528;28;20086;-63
2022/08/19 05:53:45;;;;;;;1.10;1.00;;;;;;;25.50;44.69;101285.50;5010021;28;20041;-63
2022/08/19 05:56:14;;;;;;;1.15;0.80;;;;;;;25.54;44.62;101294.97;5028165;28;20029;-63
2022/08/19 05:58:39;;;;;;;1.05;0.90;;;;;;;25.54;44.86;101297.69;5010040;28;20057;-63
2022/08/19 06:01:10;;;;;;;1.10;1.00;;;;;;;25.38;44.56;101268.91;5010416;28;20030;-63
2022/08/19 06:03:37;;;;;;;0.70;0.68;;;;;;;25.54;44.67;101294.97;5009942;28;20467;-62
2022/08/19 06:06:03;;;;;;;1.42;0.93;;;;;;;25.54;44.78;101294.97;5010609;28;20113;-62
2022/08/19 06:08:29;;;;;;;1.00;0.80;;;;;;;25.53;44.78;101301.41;5027917;28;20022;-63
2022/08/19 06:10:55;;;;;;;1.10;1.00;;;;;;;25.37;44.89;101267.25;5020767;28;20496;-62
2022/08/19 06:13:21;;;;;;;0.85;0.82;;;;;;;25.54;44.84;101293.06;5028738;28;20376;-63
2022/08/19 06:15:46;;;;;;;1.08;0.70;;;;;;;25.35;44.90;101261.16;5029302;28;20064;-63
2022/08/19 06:18:13;;;;;;;0.75;0.75;;;;;;;25.54;44.87;101295.78;5029543;28;20029;-63
2022/08/19 06:20:38;;;;;;;0.82;0.70;;;;;;;25.55;44.91;101299.34;5047616;28;20036;-63
2022/08/19 06:23:04;;;;;;;5.75;1.10;;;;;;;25.54;45.01;101295.78;5029218;28;20033;-64
2022/08/19 06:25:29;;;;;;;2.08;1.00;;;;;;;25.55;44.87;101286.56;5029694;28;20035;-63
2022/08/19 06:27:54;;;;;;;1.13;1.00;;;;;;;25.55;45.04;101291.19;5046715;28;20052;-63
2022/08/19 06:30:20;;;;;;;1.20;1.00;;;;;;;25.51;45.06;101288.03;5047275;28;20104;-63
2022/08/19 06:32:45;;;;;;;1.48;1.20;;;;;;;25.56;45.19;101287.41;5028815;28;20021;-63
2022/08/19 06:35:11;;;;;;;1.10;1.00;;;;;;;25.57;45.03;101299.97;5047074;28;20032;-63
2022/08/19 06:37:37;;;;;;;1.50;1.00;;;;;;;25.37;45.13;101265.34;5042317;28;20029;-63
2022/08/19 06:40:02;;;;;;;1.40;1.13;;;;;;;25.36;45.12;101266.41;5020740;28;20029;-63
2022/08/19 06:42:28;;;;;;;1.95;0.93;;;;;;;25.54;45.14;101297.69;5036343;28;20028;-63
2022/08/19 06:44:53;;;;;;;1.50;1.20;;;;;;;25.56;45.24;101299.13;5027184;28;20029;-62
2022/08/19 06:47:20;;;;;;;2.55;1.25;;;;;;;25.58;45.19;101304.41;5041696;28;20116;-65
2022/08/19 06:49:45;;;;;;;1.67;1.00;;;;;;;25.58;45.22;101315.28;5029464;28;20054;-63
2022/08/19 06:52:12;;;;;;;1.70;1.25;;;;;;;25.57;45.31;101309.00;5029458;28;20030;-63
2022/08/19 06:54:39;;;;;;;1.90;1.23;;;;;;;25.40;45.41;101269.53;5024461;28;20050;-64
2022/08/19 06:57:05;;;;;;;1.58;1.33;;;;;;;25.56;45.57;101307.31;5009607;28;20033;-62
2022/08/19 06:59:32;;;;;;;1.45;1.23;;;;;;;25.35;45.42;101267.44;5008729;28;20101;-63
2022/08/19 07:01:59;;;;;;;1.50;1.10;;;;;;;25.48;45.70;101282.13;5009597;28;20034;-63
2022/08/19 07:04:28;;;;;;;1.35;1.20;;;;;;;25.59;45.62;101300.63;4992876;28;20072;-63
2022/08/19 07:06:59;;;;;;;2.58;1.17;;;;;;;25.59;45.75;101311.50;4993180;28;20018;-63
2022/08/19 07:09:24;;;;;;;1.95;1.35;;;;;;;25.58;45.72;101302.50;5009375;28;20040;-63
2022/08/19 07:11:52;;;;;;;1.52;1.33;;;;;;;25.40;45.59;101274.97;5031954;28;20052;-64
2022/08/19 07:14:23;;;;;;;1.90;1.10;;;;;;;25.58;45.60;101316.13;5045797;28;20029;-63
2022/08/19 07:16:49;;;;;;;1.35;1.13;;;;;;;25.59;45.84;101316.97;5029123;28;20062;-63
2022/08/19 07:19:16;;;;;;;1.92;1.30;;;;;;;25.59;45.73;101316.97;5028681;28;20030;-63
2022/08/19 07:21:42;;;;;;;1.80;1.58;;;;;;;25.59;45.81;101320.53;5028861;28;20057;-63
2022/08/19 07:24:07;;;;;;;1.38;1.20;;;;;;;25.42;45.75;101294.69;5045796;28;20037;-63
2022/08/19 07:26:38;;;;;;;1.55;1.40;;;;;;;25.59;46.07;101312.34;5046333;28;20025;-63
2022/08/19 07:29:04;;;;;;;1.67;1.50;;;;;;;25.60;46.02;101315.91;5045025;28;20398;-63
2022/08/19 07:31:29;;;;;;;1.85;1.60;;;;;;;25.60;46.01;101316.75;5028679;28;20030;-64
2022/08/19 07:33:56;;;;;;;1.58;1.25;;;;;;;25.59;45.93;101317.78;5045829;28;20028;-63
2022/08/19 07:36:25;;;;;;;1.70;1.40;;;;;;;25.60;46.04;101327.63;5029087;28;20036;-63
2022/08/19 07:38:51;;;;;;;1.40;1.30;;;;;;;25.60;46.06;101333.09;5045898;28;20025;-63
2022/08/19 07:41:24;;;;;;;1.25;1.15;;;;;;;25.58;46.02;101321.56;5046214;28;20037;-63
2022/08/19 07:43:50;;;;;;;1.95;1.48;;;;;;;25.60;46.08;101333.09;5027385;28;20034;-63
2022/08/19 07:46:16;;;;;;;2.17;1.50;;;;;;;25.60;46.10;101326.81;5020572;28;20090;-63
2022/08/19 07:48:46;;;;;;;1.60;1.27;;;;;;;25.60;46.17;101326.81;5008476;28;20026;-63
2022/08/19 07:51:17;;;;;;;1.60;1.23;;;;;;;25.60;46.10;101327.63;5009041;28;20018;-63
2022/08/19 07:53:44;;;;;;;1.70;1.40;;;;;;;25.61;46.13;101321.13;5008178;28;20034;-64
2022/08/19 07:56:11;;;;;;;2.28;1.42;;;;;;;25.59;46.23;101315.06;5026338;28;20026;-63
2022/08/19 07:58:39;;;;;;;1.80;1.33;;;;;;;25.62;46.29;101331.00;4991850;28;20391;-63
2022/08/19 08:01:06;;;;;;;1.73;1.42;;;;;;;25.40;46.19;101297.63;5008608;28;20084;-63
2022/08/19 08:09:11;;;;;;;2.00;1.60;;;;;;;25.61;46.42;101331.19;5010632;28;20029;-63
2022/08/19 08:11:38;;;;;;;2.58;2.17;;;;;;;25.62;46.45;101339.19;5009414;28;20036;-63
2022/08/19 08:14:04;;;;;;;1.92;1.73;;;;;;;25.61;46.57;101340.19;5007369;28;20026;-63
2022/08/19 08:16:31;;;;;;;3.40;1.42;;;;;;;25.43;46.40;101310.81;5008297;28;20026;-64
2022/08/19 08:18:56;;;;;;;1.92;1.83;;;;;;;25.62;46.41;101341.91;5007820;28;20479;-63
2022/08/19 08:21:22;;;;;;;2.90;1.88;;;;;;;25.62;46.49;101341.06;5008132;28;20029;-63
2022/08/19 08:23:47;;;;;;;2.15;1.63;;;;;;;25.56;46.58;101331.81;5025109;28;20048;-63
2022/08/19 08:26:14;;;;;;;2.97;2.10;;;;;;;25.37;46.56;101302.63;5025773;28;20364;-64
2022/08/19 08:28:39;;;;;;;2.65;1.92;;;;;;;25.63;46.55;101343.56;5024652;28;20045;-64
2022/08/19 08:31:05;;;;;;;3.30;2.17;;;;;;;25.52;46.77;101325.09;5008003;28;20037;-64
2022/08/19 08:33:30;;;;;;;2.90;2.00;;;;;;;25.64;46.62;101342.53;5025152;28;20072;-63
2022/08/19 08:35:56;;;;;;;3.10;2.42;;;;;;;25.45;46.58;101313.34;5008060;28;20049;-63
2022/08/19 08:38:21;;;;;;;2.20;2.00;;;;;;;25.48;46.63;101322.97;5025228;28;20029;-63
2022/08/19 08:40:51;;;;;;;2.65;2.45;;;;;;;25.67;46.92;101357.63;5025318;28;20053;-63
2022/08/19 08:43:32;;;;;;;3.25;2.55;;;;;;;25.68;46.82;101356.59;5007207;28;20157;-64
2022/08/19 08:46:08;;;;;;;2.30;2.10;;;;;;;25.68;46.83;101360.16;4996892;28;20120;-64
2022/08/19 08:48:40;;;;;;;2.75;2.20;;;;;;;25.71;46.87;101366.25;5027222;28;20029;-63
2022/08/19 08:51:12;;;;;;;3.13;2.60;;;;;;;25.52;46.77;101332.41;5044932;28;20021;-63
2022/08/19 08:53:38;;;;;;;2.38;2.17;;;;;;;25.74;46.77;101354.91;5010365;28;20136;-63
2022/08/19 08:56:06;;;;;;;3.25;2.70;;;;;;;25.75;46.63;101367.53;5027292;28;20026;-63
2022/08/19 08:58:41;;;;;;;2.88;2.60;;;;;;;25.76;46.78;101361.84;5027016;28;20052;-63
2022/08/19 09:01:09;;;;;;;3.30;2.50;;;;;;;25.76;46.77;101361.03;5027191;28;20542;-63
2022/08/19 09:03:37;;;;;;;3.17;2.20;;;;;;;25.78;46.79;101367.97;5027035;28;20033;-63
2022/08/19 09:06:37;;;;;;;2.97;2.58;;;;;;;25.80;46.75;101365.88;5044966;28;20129;-62
2022/08/19 09:09:12;;;;;;;4.50;2.95;;;;;;;25.81;46.81;101362.13;5044756;28;20032;-62
2022/08/19 09:11:51;;;;;;;2.70;2.50;;;;;;;25.81;46.82;101364.00;5027287;28;20029;-63
2022/08/19 09:14:31;;;;;;;3.10;2.80;;;;;;;25.84;46.79;101360.88;5026636;28;20532;-63
2022/08/19 09:16:57;;;;;;;2.55;2.35;;;;;;;25.84;46.87;101361.72;5044694;28;20029;-63
2022/08/19 09:19:23;;;;;;;4.47;3.00;;;;;;;25.86;46.67;101358.78;5027178;28;20052;-63
2022/08/19 09:21:49;;;;;;;3.85;2.75;;;;;;;25.68;46.72;101327.47;5044565;28;20034;-63
2022/08/19 09:24:14;;;;;;;3.30;2.70;;;;;;;25.87;46.78;101364.03;5026991;28;20017;-63
2022/08/19 09:26:39;;;;;;;2.88;2.58;;;;;;;25.83;46.91;101351.03;5044738;28;20032;-63
2022/08/19 09:29:06;;;;;;;2.83;2.58;;;;;;;25.90;46.58;101351.88;5026558;28;20014;-63
2022/08/19 09:31:32;;;;;;;2.90;2.60;;;;;;;25.91;46.77;101356.28;5044780;28;20022;-63
2022/08/19 09:33:58;;;;;;;3.97;3.05;;;;;;;25.91;46.59;101357.13;5044294;28;20044;-63
2022/08/19 09:36:25;;;;;;;3.63;3.20;;;;;;;25.93;46.32;101357.75;5044815;28;20033;-63
2022/08/19 09:38:52;;;;;;;4.18;3.00;;;;;;;25.95;46.37;101349.38;5026852;28;20025;-64
2022/08/19 09:41:19;;;;;;;4.55;3.45;;;;;;;25.96;46.19;101361.13;5010358;28;20536;-64
2022/08/19 09:43:47;;;;;;;3.88;3.22;;;;;;;25.98;46.48;101364.47;5025685;28;20036;-63
2022/08/19 09:46:13;;;;;;;3.47;3.17;;;;;;;25.98;46.43;101357.16;5019213;28;20022;-64
2022/08/19 09:48:40;;;;;;;4.05;3.70;;;;;;;25.99;46.38;101358.81;5024553;28;20038;-63
2022/08/19 09:51:12;;;;;;;3.92;3.20;;;;;;;26.00;46.42;101352.34;5008411;28;20026;-64
2022/08/19 09:53:38;;;;;;;3.35;3.05;;;;;;;26.01;46.42;101351.28;5027680;28;20511;-64
2022/08/19 09:56:05;;;;;;;3.42;3.10;;;;;;;26.03;46.36;101353.81;5010614;28;20034;-64
2022/08/19 09:58:31;;;;;;;3.92;3.42;;;;;;;26.03;46.08;101357.38;4993753;28;20376;-63
2022/08/19 10:00:58;;;;;;;4.13;3.72;;;;;;;26.05;46.39;101362.63;5010705;28;20029;-62
2022/08/19 10:03:24;;;;;;;4.15;3.65;;;;;;;25.85;46.08;101318.97;5010265;28;20026;-63
2022/08/19 10:05:50;;;;;;;5.68;3.88;;;;;;;26.07;46.20;101352.34;5010389;28;20113;-62
2022/08/19 10:08:31;;;;;;;4.28;3.58;;;;;;;25.88;46.22;101322.13;5010409;28;20026;-62
2022/08/19 10:10:57;;;;;;;3.85;3.55;;;;;;;26.09;46.01;101355.72;5028068;28;20100;-63
2022/08/19 10:13:25;;;;;;;3.78;3.42;;;;;;;26.10;45.89;101362.84;5009730;28;20029;-62
2022/08/19 10:15:52;;;;;;;3.90;3.50;;;;;;;26.09;45.95;101364.72;4994276;28;20406;-61
2022/08/19 10:18:20;;;;;;;4.55;3.88;;;;;;;26.12;46.10;101355.28;5027845;28;20033;-62
2022/08/19 10:20:47;;;;;;;4.97;3.93;;;;;;;25.95;45.99;101337.63;5010342;28;20069;-63
2022/08/19 10:23:13;;;;;;;4.30;3.90;;;;;;;26.12;46.19;101349.84;5027440;28;20057;-64
2022/08/19 10:25:38;;;;;;;4.82;4.32;;;;;;;26.12;46.13;101353.44;5010359;28;20037;-63
2022/08/19 10:28:05;;;;;;;4.32;3.92;;;;;;;26.12;46.02;101352.56;4993183;28;20121;-63
2022/08/19 10:30:31;;;;;;;4.28;3.88;;;;;;;26.12;46.06;101353.44;5010371;28;20049;-61
2022/08/19 10:32:56;;;;;;;5.03;4.07;;;;;;;26.08;46.29;101344.00;5027248;28;20614;-63
2022/08/19 10:35:21;;;;;;;4.50;4.10;;;;;;;25.96;45.97;101323.00;5009795;28;20061;-62
2022/08/19 10:37:47;;;;;;;4.32;3.83;;;;;;;26.14;45.99;101351.31;5009721;28;20029;-63
2022/08/19 10:40:12;;;;;;;4.68;4.03;;;;;;;26.14;46.00;101359.50;5027389;28;20089;-61
2022/08/19 10:42:38;;;;;;;3.45;3.13;;;;;;;25.92;46.18;101315.22;5026565;28;20022;-61
2022/08/19 10:45:05;;;;;;;4.93;4.05;;;;;;;26.16;45.92;101351.09;5027182;28;20025;-62
2022/08/19 10:47:31;;;;;;;4.45;4.05;;;;;;;25.97;46.00;101311.03;5027249;28;20089;-61
2022/08/19 10:52:43;;;;;;;4.57;4.10;;;;;;;26.19;45.94;101347.97;5012156;28;20137;-62
2022/08/19 10:57:52;;;;;;;4.68;4.13;;;;;;;26.19;46.20;101339.78;5011946;28;20097;-62
2022/08/19 11:00:19;;;;;;;4.80;4.40;;;;;;;26.19;45.90;101342.53;4993310;28;20034;-62
2022/08/19 11:02:45;;;;;;;4.65;4.13;;;;;;;26.20;45.83;101346.09;5026499;28;20025;-61
2022/08/19 11:05:11;;;;;;;4.50;4.10;;;;;;;26.04;46.08;101315.47;5009404;28;20032;-62
2022/08/19 11:07:40;;;;;;;4.85;4.32;;;;;;;26.22;45.99;101344.84;5009521;28;20076;-61
2022/08/19 11:10:06;;;;;;;4.85;4.38;;;;;;;26.24;45.88;101352.81;5027321;28;20022;-62
2022/08/19 11:12:32;;;;;;;5.13;4.70;;;;;;;26.24;45.84;101347.34;5026263;28;20050;-61
2022/08/19 11:14:58;;;;;;;5.15;4.65;;;;;;;26.23;45.90;101341.06;5026503;28;20113;-62
2022/08/19 11:17:23;;;;;;;5.40;4.90;;;;;;;26.24;46.10;101337.28;5009266;28;20053;-63
2022/08/19 11:19:49;;;;;;;5.20;4.68;;;;;;;26.26;45.88;101345.28;5026711;28;20426;-61
2022/08/19 11:22:15;;;;;;;4.80;4.30;;;;;;;26.25;45.67;101343.56;5026448;28;20026;-62
2022/08/19 11:24:40;;;;;;;5.25;4.70;;;;;;;26.12;46.30;101318.00;5008510;28;20109;-62
2022/08/19 11:27:08;;;;;;;5.20;4.70;;;;;;;26.28;46.05;101345.91;5008861;28;20125;-62
2022/08/19 11:29:35;;;;;;;6.10;5.30;;;;;;;26.28;46.02;101337.72;5008801;28;20022;-63
2022/08/19 11:32:07;;;;;;;5.13;4.63;;;;;;;26.29;46.20;101331.22;5008796;28;20025;-61
2022/08/19 11:34:32;;;;;;;5.22;4.72;;;;;;;26.30;46.08;101339.19;5008730;28;20048;-62
2022/08/19 11:36:59;;;;;;;5.32;4.82;;;;;;;26.28;46.14;101333.09;5008805;28;20090;-61
2022/08/19 11:39:26;;;;;;;4.78;4.38;;;;;;;26.30;46.22;101325.56;5026451;28;20026;-62
2022/08/19 11:41:52;;;;;;;4.82;4.43;;;;;;;26.31;46.19;101329.13;5026126;28;20037;-62
2022/08/19 11:44:17;;;;;;;5.43;4.93;;;;;;;26.32;46.27;101331.63;5008119;28;20060;-63